createdAt,value
2018-12-16T00:00:53.263Z,29.67
2018-12-16T00:03:22.082Z,28.53
2018-12-16T00:05:51.115Z,22.90
2018-12-16T00:08:19.772Z,27.13
2018-12-16T00:10:48.526Z,13.73
2018-12-16T00:13:17.337Z,22.50
2018-12-16T00:15:46.035Z,20.00
2018-12-16T00:18:14.796Z,22.23
2018-12-16T00:20:43.423Z,27.10
2018-12-16T00:23:12.325Z,27.10
2018-12-16T00:25:41.056Z,28.53
2018-12-16T00:28:10.016Z,28.50
2018-12-16T00:30:38.740Z,24.97
2018-12-16T00:33:07.496Z,26.77
2018-12-16T00:35:36.581Z,26.17
2018-12-16T00:38:05.470Z,26.53
2018-12-16T00:40:34.696Z,24.97
2018-12-16T00:43:03.544Z,29.63
2018-12-16T00:45:32.237Z,22.10
2018-12-16T00:48:01.357Z,26.23
2018-12-16T00:50:30.017Z,29.50
2018-12-16T00:52:58.659Z,33.93
2018-12-16T00:55:27.299Z,18.17
2018-12-16T00:57:55.880Z,21.20
2018-12-16T01:00:24.767Z,25.07
2018-12-16T01:02:53.303Z,25.40
2018-12-16T01:05:22.073Z,34.10
2018-12-16T01:07:50.790Z,23.47
2018-12-16T01:10:19.485Z,29.00
2018-12-16T01:12:48.098Z,21.80
2018-12-16T01:15:16.818Z,24.57
2018-12-16T01:17:45.326Z,29.33
2018-12-16T01:20:14.044Z,23.63
2018-12-16T01:22:43.647Z,23.13
2018-12-16T01:25:12.615Z,24.37
2018-12-16T01:27:41.217Z,28.83
2018-12-16T01:30:10.048Z,22.50
2018-12-16T01:32:38.616Z,27.03
2018-12-16T01:35:07.326Z,36.93
2018-12-16T01:37:36.148Z,39.90
2018-12-16T01:40:05.881Z,31.20
2018-12-16T01:42:34.571Z,27.03
2018-12-16T01:45:03.414Z,25.30
2018-12-16T01:47:32.010Z,24.57
2018-12-16T01:50:00.556Z,30.20
2018-12-16T01:52:29.130Z,29.20
2018-12-16T01:54:57.940Z,23.80
2018-12-16T01:57:26.718Z,22.10
2018-12-16T01:59:55.352Z,24.27
2018-12-16T02:02:24.110Z,22.40
2018-12-16T02:04:52.661Z,30.43
2018-12-16T02:07:21.508Z,23.77
2018-12-16T02:09:50.533Z,35.07
2018-12-16T02:12:19.103Z,27.07
2018-12-16T02:14:47.821Z,27.20
2018-12-16T02:17:16.383Z,25.70
2018-12-16T02:19:45.312Z,28.83
2018-12-16T02:22:14.511Z,24.17
2018-12-16T02:24:43.041Z,25.30
2018-12-16T02:27:11.890Z,25.17
2018-12-16T02:29:40.762Z,31.60
2018-12-16T02:32:09.402Z,31.23
2018-12-16T02:34:38.029Z,23.30
2018-12-16T02:37:06.729Z,24.37
2018-12-16T02:39:36.462Z,17.00
2018-12-16T02:44:33.031Z,31.73
2018-12-16T02:47:01.730Z,30.87
2018-12-16T02:49:30.496Z,23.10
2018-12-16T02:51:59.200Z,38.07
2018-12-16T02:54:27.834Z,26.43
2018-12-16T02:56:56.025Z,36.50
2018-12-16T02:59:24.593Z,29.60
2018-12-16T03:01:53.122Z,33.43
2018-12-16T03:04:21.806Z,27.47
2018-12-16T03:06:50.532Z,26.90
2018-12-16T03:09:19.098Z,31.60
2018-12-16T03:11:47.661Z,29.40
2018-12-16T03:14:16.278Z,31.57
2018-12-16T03:16:44.840Z,36.70
2018-12-16T03:19:13.513Z,25.67
2018-12-16T03:21:42.197Z,29.00
2018-12-16T03:24:10.836Z,32.63
2018-12-16T03:26:38.854Z,42.80
2018-12-16T03:29:07.554Z,38.83
2018-12-16T03:31:36.242Z,30.23
2018-12-16T03:34:05.134Z,30.20
2018-12-16T03:36:33.689Z,34.60
2018-12-16T03:39:02.333Z,33.90
2018-12-16T03:41:31.387Z,35.03
2018-12-16T03:44:00.037Z,37.03
2018-12-16T03:46:28.679Z,32.10
2018-12-16T03:48:57.307Z,31.60
2018-12-16T03:51:25.922Z,29.20
2018-12-16T03:53:54.483Z,27.27
2018-12-16T03:56:23.134Z,38.60
2018-12-16T03:59:03.098Z,29.87
2018-12-16T04:01:31.646Z,37.47
2018-12-16T04:04:00.323Z,34.63
2018-12-16T04:06:28.925Z,55.73
2018-12-16T04:08:57.500Z,36.87
2018-12-16T04:11:26.044Z,92.80
2018-12-16T04:13:54.742Z,47.97
2018-12-16T04:16:23.472Z,89.37
2018-12-16T04:18:52.033Z,43.20
2018-12-16T04:21:20.839Z,36.93
2018-12-16T04:23:49.558Z,85.93
2018-12-16T04:26:18.098Z,94.37
2018-12-16T04:28:46.681Z,43.17
2018-12-16T04:31:15.318Z,30.17
2018-12-16T04:33:43.933Z,38.40
2018-12-16T04:36:11.970Z,37.20
2018-12-16T04:38:40.558Z,36.00
2018-12-16T04:41:09.377Z,32.47
2018-12-16T04:43:37.928Z,35.33
2018-12-16T04:46:06.650Z,34.73
2018-12-16T04:48:35.334Z,40.77
2018-12-16T04:51:04.198Z,34.07
2018-12-16T04:53:36.924Z,46.80
2018-12-16T04:56:03.471Z,37.07
2018-12-16T04:58:32.115Z,37.83
2018-12-16T05:01:00.708Z,36.13
2018-12-16T05:03:29.569Z,28.63
2018-12-16T05:05:58.159Z,40.50
2018-12-16T05:08:26.913Z,35.40
2018-12-16T05:10:55.434Z,29.13
2018-12-16T05:13:24.217Z,43.97
2018-12-16T05:15:52.924Z,40.83
2018-12-16T05:18:21.829Z,35.20
2018-12-16T05:20:50.739Z,35.63
2018-12-16T05:23:19.350Z,36.27
2018-12-16T05:25:48.135Z,36.33
2018-12-16T05:28:16.671Z,39.30
2018-12-16T05:30:45.330Z,41.00
2018-12-16T05:33:14.101Z,38.67
2018-12-16T05:35:42.703Z,26.63
2018-12-16T05:38:11.367Z,34.77
2018-12-16T05:40:39.912Z,28.60
2018-12-16T05:43:08.637Z,39.57
2018-12-16T05:45:37.262Z,36.80
2018-12-16T05:48:06.073Z,35.40
2018-12-16T05:50:34.707Z,37.90
2018-12-16T05:53:03.415Z,39.17
2018-12-16T05:55:32.017Z,39.57
2018-12-16T05:58:00.882Z,36.77
2018-12-16T06:00:29.760Z,40.50
2018-12-16T06:02:58.549Z,39.43
2018-12-16T06:05:27.625Z,39.43
2018-12-16T06:07:56.190Z,37.90
2018-12-16T06:10:24.864Z,39.73
2018-12-16T06:12:53.650Z,45.43
2018-12-16T06:15:22.269Z,45.30
2018-12-16T06:17:51.071Z,47.77
2018-12-16T06:20:19.629Z,37.63
2018-12-16T06:22:48.269Z,44.23
2018-12-16T06:25:16.827Z,49.33
2018-12-16T06:27:45.371Z,42.23
2018-12-16T06:30:15.378Z,46.47
2018-12-16T06:32:44.208Z,44.67
2018-12-16T06:35:13.166Z,43.80
2018-12-16T06:37:41.868Z,45.57
2018-12-16T06:40:10.583Z,42.17
2018-12-16T06:42:39.179Z,37.93
2018-12-16T06:45:07.864Z,42.97
2018-12-16T06:47:36.566Z,35.63
2018-12-16T06:50:06.299Z,36.80
2018-12-16T06:52:34.831Z,39.33
2018-12-16T06:55:03.865Z,40.20
2018-12-16T06:57:32.627Z,44.80
2018-12-16T07:00:01.486Z,37.63
2018-12-16T07:02:30.084Z,47.90
2018-12-16T07:04:58.996Z,48.57
2018-12-16T07:07:27.638Z,35.63
2018-12-16T07:09:56.277Z,46.37
2018-12-16T07:12:24.896Z,41.70
2018-12-16T07:14:53.747Z,47.17
2018-12-16T07:17:22.402Z,32.33
2018-12-16T07:19:51.039Z,42.17
2018-12-16T07:22:20.014Z,49.43
2018-12-16T07:24:49.597Z,40.23
2018-12-16T07:27:18.720Z,32.33
2018-12-16T07:29:47.317Z,51.37
2018-12-16T07:32:16.247Z,40.53
2018-12-16T07:34:44.989Z,43.40
2018-12-16T07:37:18.902Z,30.97
2018-12-16T07:39:44.512Z,41.47
2018-12-16T07:42:13.226Z,39.13
2018-12-16T07:44:42.025Z,38.53
2018-12-16T07:47:10.764Z,39.37
2018-12-16T07:49:39.926Z,41.60
2018-12-16T07:52:08.852Z,44.80
2018-12-16T07:54:37.832Z,46.63
2018-12-16T07:57:06.897Z,41.03
2018-12-16T07:59:36.131Z,42.37
2018-12-16T08:02:05.173Z,52.70
2018-12-16T08:04:33.817Z,40.23
2018-12-16T08:07:02.706Z,45.23
2018-12-16T08:09:31.552Z,53.87
2018-12-16T08:12:00.162Z,55.33
2018-12-16T08:14:28.712Z,36.27
2018-12-16T08:16:58.381Z,39.97
2018-12-16T08:19:27.116Z,43.37
2018-12-16T08:21:56.029Z,49.73
2018-12-16T08:24:24.942Z,51.73
2018-12-16T08:26:53.719Z,44.47
2018-12-16T08:29:22.377Z,42.13
2018-12-16T08:31:51.000Z,53.13
2018-12-16T08:34:19.836Z,48.63
2018-12-16T08:36:48.442Z,38.20
2018-12-16T08:39:17.405Z,50.43
2018-12-16T08:41:46.065Z,44.73
2018-12-16T08:44:15.191Z,36.73
2018-12-16T08:46:44.020Z,46.67
2018-12-16T08:49:12.585Z,43.23
2018-12-16T08:51:41.270Z,51.67
2018-12-16T08:54:10.342Z,45.10
2018-12-16T08:56:39.030Z,41.50
2018-12-16T08:59:07.891Z,51.40
2018-12-16T09:01:36.645Z,42.43
2018-12-16T09:04:05.209Z,44.17
2018-12-16T09:06:36.013Z,46.47
2018-12-16T09:09:07.903Z,40.50
2018-12-16T09:11:37.096Z,39.20
2018-12-16T09:14:06.597Z,44.50
2018-12-16T09:16:35.830Z,47.40
2018-12-16T09:19:04.720Z,42.90
2018-12-16T09:21:33.638Z,40.83
2018-12-16T09:24:02.347Z,46.97
2018-12-16T09:26:31.048Z,47.23
2018-12-16T09:28:59.983Z,46.60
2018-12-16T09:31:28.981Z,51.10
2018-12-16T09:33:57.654Z,42.97
2018-12-16T09:36:26.810Z,52.77
2018-12-16T09:38:55.623Z,47.80
2018-12-16T09:41:24.240Z,43.80
2018-12-16T09:43:52.910Z,55.67
2018-12-16T09:46:21.861Z,48.60
2018-12-16T09:48:50.879Z,46.07
2018-12-16T09:51:19.615Z,46.50
2018-12-16T09:53:48.439Z,50.37
2018-12-16T09:56:17.264Z,55.93
2018-12-16T09:58:45.856Z,45.80
2018-12-16T10:01:14.607Z,42.43
2018-12-16T10:03:43.769Z,52.20
2018-12-16T10:06:12.666Z,50.63
2018-12-16T10:08:41.476Z,54.50
2018-12-16T10:11:10.326Z,47.37
2018-12-16T10:13:39.252Z,58.00
2018-12-16T10:16:08.003Z,49.33
2018-12-16T10:18:36.853Z,68.03
2018-12-16T10:21:06.043Z,65.83
2018-12-16T10:23:34.910Z,43.57
2018-12-16T10:26:03.668Z,56.73
2018-12-16T10:28:32.406Z,52.33
2018-12-16T10:31:01.021Z,48.63
2018-12-16T10:33:29.624Z,47.03
2018-12-16T10:35:58.730Z,47.33
2018-12-16T10:38:27.577Z,43.67
2018-12-16T10:40:56.411Z,56.17
2018-12-16T10:43:25.342Z,46.90
2018-12-16T10:45:54.208Z,47.30
2018-12-16T10:48:23.022Z,50.60
2018-12-16T10:50:51.861Z,45.10
2018-12-16T10:53:20.527Z,46.50
2018-12-16T10:55:49.418Z,48.40
2018-12-16T10:58:18.406Z,48.50
2018-12-16T11:00:52.357Z,48.10
2018-12-16T11:03:21.362Z,45.40
2018-12-16T11:05:50.002Z,57.07
2018-12-16T11:08:18.711Z,42.63
2018-12-16T11:10:47.508Z,45.97
2018-12-16T11:13:17.233Z,51.67
2018-12-16T11:15:46.259Z,42.47
2018-12-16T11:18:15.213Z,52.07
2018-12-16T11:20:44.230Z,63.00
2018-12-16T11:23:13.292Z,44.13
2018-12-16T11:25:48.212Z,59.13
2018-12-16T11:28:17.005Z,46.50
2018-12-16T11:30:45.718Z,45.13
2018-12-16T11:33:14.864Z,46.00
2018-12-16T11:35:43.741Z,48.17
2018-12-16T11:38:12.640Z,45.77
2018-12-16T11:40:41.336Z,48.30
2018-12-16T11:43:10.071Z,42.73
2018-12-16T11:45:39.042Z,44.20
2018-12-16T11:48:07.886Z,44.10
2018-12-16T11:50:37.165Z,50.63
2018-12-16T11:53:06.731Z,49.23
2018-12-16T11:55:35.863Z,49.15
2018-12-16T11:58:04.589Z,47.57
2018-12-16T12:00:33.736Z,34.60
2018-12-16T12:03:03.021Z,38.60
2018-12-16T12:05:32.016Z,42.80
2018-12-16T12:08:01.293Z,40.10
2018-12-16T12:10:30.286Z,42.13
2018-12-16T12:12:59.183Z,46.57
2018-12-16T12:15:27.983Z,36.77
2018-12-16T12:17:56.949Z,48.07
2018-12-16T12:20:26.225Z,39.10
2018-12-16T12:22:55.454Z,39.10
2018-12-16T12:25:24.244Z,47.20
2018-12-16T12:27:53.626Z,53.47
2018-12-16T12:30:22.501Z,44.97
2018-12-16T12:32:51.735Z,42.90
2018-12-16T12:35:20.797Z,45.97
2018-12-16T12:37:49.721Z,37.47
2018-12-16T12:40:18.945Z,48.53
2018-12-16T12:42:48.133Z,45.40
2018-12-16T12:45:16.912Z,47.97
2018-12-16T12:47:45.740Z,47.63
2018-12-16T12:50:14.587Z,48.80
2018-12-16T12:52:43.587Z,49.90
2018-12-16T12:55:12.595Z,49.83
2018-12-16T12:57:41.494Z,47.03
2018-12-16T13:00:13.673Z,45.00
2018-12-16T13:02:42.423Z,50.57
2018-12-16T13:05:11.283Z,51.40
2018-12-16T13:07:40.015Z,41.20
2018-12-16T13:10:11.186Z,58.10
2018-12-16T13:12:40.164Z,50.50
2018-12-16T13:15:09.157Z,46.97
2018-12-16T13:17:38.014Z,86.67
2018-12-16T13:20:07.195Z,46.07
2018-12-16T13:22:36.233Z,52.77
2018-12-16T13:26:11.359Z,50.47
2018-12-16T13:28:40.110Z,52.63
2018-12-16T13:31:09.008Z,70.17
2018-12-16T13:33:37.758Z,64.40
2018-12-16T13:36:09.605Z,52.70
2018-12-16T13:38:38.383Z,53.53
2018-12-16T13:41:07.186Z,53.83
2018-12-16T13:43:36.993Z,56.43
2018-12-16T13:46:05.900Z,52.73
2018-12-16T13:48:35.071Z,53.63
2018-12-16T13:51:04.126Z,65.03
2018-12-16T13:53:32.469Z,54.13
2018-12-16T13:56:01.519Z,60.87
2018-12-16T13:58:30.442Z,67.47
2018-12-16T14:00:59.298Z,59.23
2018-12-16T14:03:28.203Z,57.90
2018-12-16T14:05:57.404Z,49.60
2018-12-16T14:08:26.557Z,49.43
2018-12-16T14:10:55.487Z,45.67
2018-12-16T14:13:24.290Z,46.30
2018-12-16T14:15:53.286Z,52.93
2018-12-16T14:18:22.049Z,60.93
2018-12-16T14:20:50.951Z,50.63
2018-12-16T14:23:19.869Z,51.43
2018-12-16T14:25:48.546Z,58.43
2018-12-16T14:28:17.483Z,53.20
2018-12-16T14:30:46.657Z,56.17
2018-12-16T14:33:15.607Z,52.50
2018-12-16T14:35:45.041Z,46.00
2018-12-16T14:38:14.060Z,77.30
2018-12-16T14:40:43.040Z,62.43
2018-12-16T14:43:11.711Z,65.33
2018-12-16T14:48:34.527Z,56.90
2018-12-16T14:51:03.763Z,63.47
2018-12-16T14:53:33.258Z,47.53
2018-12-16T14:56:02.475Z,69.13
2018-12-16T14:58:31.822Z,48.57
2018-12-16T15:01:01.362Z,55.57
2018-12-16T15:03:31.256Z,56.10
2018-12-16T15:06:00.452Z,61.57
2018-12-16T15:08:29.871Z,55.60
2018-12-16T15:10:59.840Z,49.23
2018-12-16T15:13:29.067Z,53.60
2018-12-16T15:15:59.563Z,64.90
2018-12-16T15:18:29.234Z,55.33
2018-12-16T15:20:59.522Z,69.30
2018-12-16T15:23:28.598Z,64.23
2018-12-16T15:26:01.988Z,56.57
2018-12-16T15:28:29.202Z,60.53
2018-12-16T15:30:59.111Z,52.33
2018-12-16T15:33:29.014Z,50.40
2018-12-16T15:35:57.991Z,52.00
2018-12-16T15:38:26.944Z,60.17
2018-12-16T15:40:56.156Z,59.97
2018-12-16T15:43:25.455Z,50.10
2018-12-16T15:45:54.855Z,54.00
2018-12-16T15:48:23.913Z,55.07
2018-12-16T15:50:54.764Z,58.90
2018-12-16T15:53:23.587Z,49.67
2018-12-16T15:55:53.628Z,48.67
2018-12-16T15:58:22.709Z,53.50
2018-12-16T16:00:51.789Z,46.70
2018-12-16T16:03:20.767Z,50.50
2018-12-16T16:05:49.807Z,61.27
2018-12-16T16:08:19.707Z,50.70
2018-12-16T16:10:48.980Z,57.10
2018-12-16T16:13:18.079Z,68.80
2018-12-16T16:15:47.312Z,52.13
2018-12-16T16:18:18.994Z,50.60
2018-12-16T16:20:50.622Z,51.87
2018-12-16T16:23:19.989Z,61.17
2018-12-16T16:25:50.137Z,59.93
2018-12-16T16:28:19.257Z,52.30
2018-12-16T16:30:48.621Z,53.30
2018-12-16T16:33:17.868Z,57.13
2018-12-16T16:35:47.030Z,62.57
2018-12-16T16:38:16.453Z,55.87
2018-12-16T16:40:45.863Z,54.40
2018-12-16T16:43:15.237Z,52.80
2018-12-16T16:45:44.482Z,57.20
2018-12-16T16:48:13.790Z,58.23
2018-12-16T16:50:42.717Z,55.97
2018-12-16T16:53:11.651Z,51.83
2018-12-16T16:55:40.844Z,60.53
2018-12-16T16:58:09.816Z,54.80
2018-12-16T17:00:38.921Z,74.07
2018-12-16T17:03:08.312Z,53.27
2018-12-16T17:05:37.288Z,55.13
2018-12-16T17:08:06.585Z,62.83
2018-12-16T17:10:35.379Z,55.77
2018-12-16T17:13:04.409Z,54.03
2018-12-16T17:15:33.817Z,40.30
2018-12-16T17:18:02.711Z,59.10
2018-12-16T17:20:31.790Z,53.70
2018-12-16T17:23:00.734Z,48.03
2018-12-16T17:25:30.215Z,41.97
2018-12-16T17:27:59.193Z,53.33
2018-12-16T17:30:28.207Z,43.87
2018-12-16T17:32:57.418Z,44.07
2018-12-16T17:35:26.505Z,52.20
2018-12-16T17:37:55.570Z,53.47
2018-12-16T17:40:24.574Z,46.40
2018-12-16T17:42:53.840Z,53.60
2018-12-16T17:45:22.365Z,56.10
2018-12-16T17:47:51.660Z,43.47
2018-12-16T17:50:20.745Z,61.23
2018-12-16T17:52:50.046Z,52.20
2018-12-16T17:55:18.944Z,49.60
2018-12-16T17:57:47.712Z,59.97
2018-12-16T18:00:17.103Z,62.57
2018-12-16T18:02:46.359Z,57.23
2018-12-16T18:05:15.365Z,51.57
2018-12-16T18:07:44.550Z,57.70
2018-12-16T18:10:14.088Z,47.97
2018-12-16T18:12:45.199Z,49.93
2018-12-16T18:15:14.684Z,51.60
2018-12-16T18:17:44.147Z,57.90
2018-12-16T18:20:14.091Z,62.80
2018-12-16T18:22:43.186Z,51.03
2018-12-16T18:25:12.580Z,53.33
2018-12-16T18:27:41.903Z,54.47
2018-12-16T18:30:11.868Z,57.90
2018-12-16T18:32:41.123Z,45.10
2018-12-16T18:35:10.589Z,49.40
2018-12-16T18:37:39.823Z,53.50
2018-12-16T18:40:09.673Z,68.43
2018-12-16T18:42:38.716Z,44.90
2018-12-16T18:45:08.478Z,43.33
2018-12-16T18:47:37.759Z,45.17
2018-12-16T18:50:08.315Z,52.33
2018-12-16T18:52:37.173Z,48.53
2018-12-16T18:55:08.156Z,38.63
2018-12-16T18:57:37.306Z,48.17
2018-12-16T19:00:06.955Z,47.27
2018-12-16T19:02:36.201Z,50.70
2018-12-16T19:05:05.772Z,51.40
2018-12-16T19:07:34.929Z,48.30
2018-12-16T19:10:07.562Z,58.03
2018-12-16T19:12:38.444Z,50.50
2018-12-16T19:15:09.898Z,49.17
2018-12-16T19:20:38.482Z,49.63
2018-12-16T19:23:07.963Z,56.07
2018-12-16T19:25:37.506Z,56.33
2018-12-16T19:28:08.288Z,56.57
2018-12-16T19:30:39.846Z,47.07
2018-12-16T19:33:12.325Z,45.53
2018-12-16T19:35:46.458Z,56.07
2018-12-16T19:38:16.696Z,57.40
2018-12-16T19:40:48.828Z,69.17
2018-12-16T19:43:20.686Z,61.50
2018-12-16T19:45:51.091Z,47.63
2018-12-16T19:48:21.816Z,52.37
2018-12-16T19:50:51.548Z,60.97
2018-12-16T19:53:21.659Z,60.80
2018-12-16T19:55:51.644Z,53.73
2018-12-16T19:58:22.708Z,59.30
2018-12-16T20:00:52.437Z,58.87
2018-12-16T20:03:24.709Z,58.80
2018-12-16T20:06:00.472Z,51.67
2018-12-16T20:08:31.493Z,48.63
2018-12-16T20:11:03.644Z,51.83
2018-12-16T20:13:33.953Z,61.70
2018-12-16T20:16:05.259Z,55.57
2018-12-16T20:18:37.172Z,50.67
2018-12-16T20:21:09.353Z,63.50
2018-12-16T20:23:41.063Z,59.20
2018-12-16T20:26:10.389Z,57.17
2018-12-16T20:28:40.800Z,61.60
2018-12-16T20:31:10.680Z,63.93
2018-12-16T20:33:41.266Z,60.10
2018-12-16T20:36:13.284Z,71.57
2018-12-16T20:38:43.368Z,52.83
2018-12-16T20:41:15.145Z,53.93
2018-12-16T20:43:45.527Z,60.53
2018-12-16T20:46:16.225Z,61.77
2018-12-16T20:48:45.324Z,52.83
2018-12-16T20:51:17.902Z,56.40
2018-12-16T20:53:47.507Z,48.93
2018-12-16T20:56:17.946Z,59.83
2018-12-16T20:58:49.689Z,56.73
2018-12-16T21:01:18.738Z,62.93
2018-12-16T21:03:49.025Z,68.97
2018-12-16T21:06:18.524Z,61.57
2018-12-16T21:08:48.510Z,66.60
2018-12-16T21:11:22.869Z,68.80
2018-12-16T21:13:58.575Z,57.13
2018-12-16T21:16:34.920Z,51.33
2018-12-16T21:19:04.059Z,54.40
2018-12-16T21:21:33.420Z,55.33
2018-12-16T21:24:03.814Z,62.73
2018-12-16T21:26:33.040Z,55.30
2018-12-16T21:29:03.362Z,54.30
2018-12-16T21:31:32.443Z,47.90
2018-12-16T21:34:03.071Z,59.10
2018-12-16T21:36:32.539Z,55.57
2018-12-16T21:39:01.971Z,56.40
2018-12-16T21:41:31.522Z,52.80
2018-12-16T21:44:00.427Z,54.07
2018-12-16T21:46:30.140Z,51.57
2018-12-16T21:48:59.216Z,48.33
2018-12-16T21:51:28.146Z,47.23
2018-12-16T21:53:58.025Z,46.20
2018-12-16T21:56:26.943Z,53.57
2018-12-16T21:58:56.558Z,59.60
2018-12-16T22:01:26.098Z,42.03
2018-12-16T22:03:55.147Z,51.30
2018-12-16T22:06:24.117Z,46.40
2018-12-16T22:08:52.990Z,49.13
2018-12-16T22:11:21.929Z,43.07
2018-12-16T22:13:50.727Z,41.77
2018-12-16T22:16:19.906Z,46.17
2018-12-16T22:18:48.811Z,35.73
2018-12-16T22:21:17.810Z,49.27
2018-12-16T22:23:47.395Z,47.73
2018-12-16T22:26:16.268Z,44.37
2018-12-16T22:28:44.985Z,45.30
2018-12-16T22:31:13.727Z,47.87
2018-12-16T22:33:42.543Z,45.33
2018-12-16T22:36:11.275Z,42.27
2018-12-16T22:38:40.115Z,48.13
2018-12-16T22:41:08.752Z,43.77
2018-12-16T22:43:37.788Z,55.27
2018-12-16T22:46:06.418Z,42.57
2018-12-16T22:48:35.673Z,56.63
2018-12-16T22:51:04.585Z,54.13
2018-12-16T22:53:33.278Z,62.37
2018-12-16T22:56:02.106Z,39.17
2018-12-16T22:58:30.740Z,48.83
2018-12-16T23:01:04.965Z,47.20
2018-12-16T23:03:33.539Z,42.33
2018-12-16T23:06:03.114Z,51.50
2018-12-16T23:08:32.106Z,50.40
2018-12-16T23:11:01.010Z,41.77
2018-12-16T23:13:29.587Z,35.10
2018-12-16T23:15:58.366Z,47.60
2018-12-16T23:18:27.091Z,40.03
2018-12-16T23:20:55.741Z,37.47
2018-12-16T23:23:24.442Z,39.47
2018-12-16T23:25:53.068Z,50.30
2018-12-16T23:28:21.810Z,38.13
2018-12-16T23:30:50.622Z,31.00
2018-12-16T23:33:20.006Z,38.43
2018-12-16T23:35:48.642Z,39.13
2018-12-16T23:38:17.323Z,41.67
2018-12-16T23:40:46.031Z,37.57
2018-12-16T23:43:14.695Z,40.23
2018-12-16T23:45:43.617Z,40.10
2018-12-16T23:48:12.277Z,35.60
2018-12-16T23:50:40.961Z,35.60
2018-12-16T23:53:09.658Z,29.93
2018-12-16T23:55:38.171Z,31.90
2018-12-16T23:58:06.765Z,26.33
